Alviso, California
Current Conditions -  °F | °C
As of 3:56 AM on Thursday 29 Jan 2015 (Local Time) from KNUQ Reporting Station
Clear Clear  
Wind Chill: 47°   Ceiling: Unl
Heat Index: 47°   Visibility: 10mi
Dew Point: 42°   Wind: 0mph
Humidity: 83%   Direction: NA
Pressure: 30.15"   Gusts: NA
Location:  37.43°N, 121.97°W
Report Text: KNUQ 291156Z 00000KT 10SM CLR 08/06 A3015 RMK AO2 SLP212 T00830056 10122 20072 58008
Loading
Personal Weather Stations






























Interactive Weather Map New forecast layout! Learn more

10-Day Weather Forecast

Advertisements
Track Severe Weather on mobile